Ipora, Brazil
Current Conditions -  °F | °C
As of 5:00 PM on Wednesday 17 Dec 2014 (Local Time) from SBGO Reporting Station
Broken Clouds Broken Clouds  
Wind Chill: 77°   Ceiling: 8000
Heat Index: 79°   Visibility: 6mi
Dew Point: 66°   Wind: 8mph
Humidity: 69%   Direction: 300°WNW
Pressure: 29.91"   Gusts: NA
Location:  16.44°S, 51.12°W
Report Text: SBGO 171900Z 30007KT 9999 FEW030 FEW040TCU BKN080 25/19 Q1013
Loading
Personal Weather Stations






























Interactive Weather Map New forecast layout! Learn more

10-Day Weather Forecast

Advertisements
Track Severe Weather on mobile